Time;durP1;ratioP1;P1;durP2;ratioP2;P2;SDS_P1;SDS_P2;PMS_P1;PMS_P2;Temp;Humidity;BMP_temperature;BMP_pressure;BME280_temperature;BME280_humidity;BME280_pressure;Samples;Min_cycle;Max_cycle;Signal;HPM_P1;HPM_P2
2022/08/03 00:00:24;;;;;;;5.72;2.65;;;;;;;21.60;47.71;99778.56;12200627;19;20463;-84
2022/08/03 00:04:26;;;;;;;5.60;2.78;;;;;;;21.56;48.37;99781.16;12206637;19;20023;-84
2022/08/03 00:08:34;;;;;;;4.78;2.47;;;;;;;21.52;48.80;99782.16;12179204;19;20012;-83
2022/08/03 00:12:40;;;;;;;5.35;2.40;;;;;;;21.46;48.68;99777.84;12204172;19;20014;-84
2022/08/03 00:16:42;;;;;;;3.15;2.30;;;;;;;21.42;48.92;99777.69;12186934;19;20370;-84
2022/08/03 00:20:44;;;;;;;3.65;2.05;;;;;;;21.40;48.65;99777.16;12206817;19;20010;-83
2022/08/03 00:24:45;;;;;;;3.30;2.33;;;;;;;21.37;48.74;99772.19;12214152;19;20007;-82
2022/08/03 00:28:48;;;;;;;9.82;2.42;;;;;;;21.33;49.20;99769.19;12183654;19;20071;-82
2022/08/03 00:32:49;;;;;;;4.45;2.60;;;;;;;21.29;49.38;99775.75;12205444;19;20025;-83
2022/08/03 00:36:51;;;;;;;3.67;2.28;;;;;;;21.28;49.64;99772.13;12206287;19;20155;-82
2022/08/03 00:40:52;;;;;;;5.50;2.38;;;;;;;21.25;50.11;99783.97;12184291;19;20536;-83
2022/08/03 00:44:54;;;;;;;4.03;2.20;;;;;;;21.25;49.88;99769.16;12206857;19;20433;-83
2022/08/03 00:48:56;;;;;;;3.15;2.17;;;;;;;21.23;50.21;99763.84;12209364;19;20043;-83
2022/08/03 00:52:58;;;;;;;9.30;2.67;;;;;;;21.23;49.93;99765.84;12180259;19;22043;-82
2022/08/03 00:57:00;;;;;;;3.40;2.42;;;;;;;21.18;50.30;99761.22;12203070;19;20018;-82
2022/08/03 01:01:05;;;;;;;2.63;1.70;;;;;;;21.14;49.90;99763.81;12198509;19;20002;-82
2022/08/03 01:05:09;;;;;;;5.55;2.10;;;;;;;21.07;50.34;99762.63;12179951;19;20066;-83
2022/08/03 01:09:15;;;;;;;2.63;2.00;;;;;;;21.04;50.49;99764.09;12203875;19;20028;-81
2022/08/03 01:13:21;;;;;;;3.45;2.05;;;;;;;21.01;50.09;99753.53;12200427;19;20011;-83
2022/08/03 01:18:04;;;;;;;4.10;2.05;;;;;;;21.00;50.30;99760.28;12182554;19;20487;-82
2022/08/03 01:22:25;;;;;;;;;;;;;;;21.01;49.69;99752.72;12201119;19;20011;-81
2022/08/03 01:26:53;;;;;;;2.63;1.95;;;;;;;21.03;49.09;99759.66;12182105;19;19930;-82
2022/08/03 01:31:00;;;;;;;4.60;2.10;;;;;;;21.05;49.34;99757.34;12190403;19;20085;-81
2022/08/03 01:35:08;;;;;;;3.13;2.22;;;;;;;21.07;49.43;99751.41;12182044;19;20022;-81
2022/08/03 01:39:10;;;;;;;2.63;1.95;;;;;;;21.09;49.49;99744.34;12216315;19;20006;-81
2022/08/03 01:43:15;;;;;;;3.63;1.77;;;;;;;;;;12215886;19;20102;-80
2022/08/03 01:47:39;;;;;;;2.78;1.77;;;;;;;21.17;49.11;99739.91;12193584;19;20007;-80
2022/08/03 01:51:42;;;;;;;2.95;2.03;;;;;;;21.20;48.92;99741.25;12208103;19;20090;-83
2022/08/03 01:56:04;;;;;;;;;;;;;;;21.19;48.90;99740.44;12177182;19;20031;-82
2022/08/03 02:00:10;;;;;;;2.40;1.63;;;;;;;21.18;48.45;99747.19;12211058;19;20323;-83
2022/08/03 02:04:16;;;;;;;4.45;1.77;;;;;;;21.14;49.11;99740.56;12214033;19;20662;-82
2022/08/03 02:08:22;;;;;;;2.33;1.70;;;;;;;21.13;49.42;99738.94;12191252;19;20750;-82
2022/08/03 02:12:26;;;;;;;4.80;2.40;;;;;;;21.11;48.88;99732.81;12214268;19;20013;-83
2022/08/03 02:16:30;;;;;;;3.80;2.10;;;;;;;21.10;49.28;99733.97;12207830;19;20483;-83
2022/08/03 02:20:35;;;;;;;3.03;2.05;;;;;;;21.07;49.37;99732.63;12185777;19;20065;-82
2022/08/03 02:24:37;;;;;;;2.78;1.52;;;;;;;21.07;49.45;99735.44;12211668;19;20002;-83
2022/08/03 02:28:41;;;;;;;4.37;2.00;;;;;;;21.07;49.32;99734.59;12214615;19;20066;-82
2022/08/03 02:32:50;;;;;;;3.80;1.90;;;;;;;21.06;49.40;99732.94;12188939;19;20879;-83
2022/08/03 02:36:54;;;;;;;2.75;1.90;;;;;;;21.06;49.21;99736.59;12198501;19;20823;-82
2022/08/03 02:40:57;;;;;;;3.75;1.88;;;;;;;21.04;49.75;99733.28;12184761;19;20082;-82
2022/08/03 02:45:01;;;;;;;;;;;;;;;20.99;49.67;99739.00;12197308;19;20089;-82
2022/08/03 02:49:04;;;;;;;4.28;1.58;;;;;;;20.96;49.79;99736.03;12211750;19;20242;-82
2022/08/03 02:53:28;;;;;;;4.13;2.15;;;;;;;20.94;50.02;99723.19;12185745;19;20021;-83
2022/08/03 02:57:34;;;;;;;3.60;1.73;;;;;;;20.93;50.27;99724.31;12209895;19;20010;-82
2022/08/03 03:01:50;;;;;;;3.25;1.85;;;;;;;20.95;50.07;99721.19;12184163;19;20045;-81
2022/08/03 03:05:52;;;;;;;;;;;;;;;20.89;50.60;99723.31;12212348;19;20838;-82
2022/08/03 03:10:01;;;;;;;3.92;1.92;;;;;;;20.78;50.71;99719.13;12203373;19;19915;-81
2022/08/03 03:14:04;;;;;;;2.90;1.98;;;;;;;20.56;52.07;99736.78;12186398;19;20006;-82
2022/08/03 03:18:10;;;;;;;2.78;1.90;;;;;;;20.34;53.24;99740.34;12203283;19;20792;-83
2022/08/03 03:22:14;;;;;;;4.10;2.53;;;;;;;20.21;53.60;99742.03;12203847;19;20090;-81
2022/08/03 03:26:17;;;;;;;3.47;2.08;;;;;;;20.06;54.02;99728.44;12183271;19;20058;-81
2022/08/03 03:30:18;;;;;;;2.88;1.98;;;;;;;19.95;53.86;99743.78;12201390;19;20018;-83
2022/08/03 03:34:20;;;;;;;2.78;2.10;;;;;;;19.84;54.56;99737.59;12195908;19;20010;-82
2022/08/03 03:38:23;;;;;;;6.35;2.25;;;;;;;19.76;54.44;99738.34;12174234;19;20488;-81
2022/08/03 03:42:26;;;;;;;;;;;;;;;19.68;55.14;99741.84;12196680;19;20027;-82
2022/08/03 03:46:28;;;;;;;2.75;1.90;;;;;;;19.59;54.54;99738.94;12191900;19;19913;-82
2022/08/03 03:50:31;;;;;;;2.88;1.73;;;;;;;19.45;54.80;99738.91;12182341;19;20496;-81
2022/08/03 03:54:42;;;;;;;;;;;;;;;19.35;55.41;99737.16;12191479;19;20081;-81
2022/08/03 03:58:44;;;;;;;2.67;1.85;;;;;;;19.29;55.57;99743.19;12180084;19;20004;-81
2022/08/03 04:02:46;;;;;;;3.08;1.98;;;;;;;19.28;56.14;99739.56;12199972;19;20046;-81
2022/08/03 04:11:15;;;;;;;2.95;2.15;;;;;;;19.28;56.67;99739.56;12173667;19;20018;-80
2022/08/03 04:15:21;;;;;;;4.05;2.30;;;;;;;19.28;56.93;99735.94;12197932;19;20014;-79
2022/08/03 04:19:34;;;;;;;3.15;2.33;;;;;;;19.28;57.00;99735.94;12195098;19;20014;-81
2022/08/03 04:23:43;;;;;;;3.75;2.13;;;;;;;19.28;57.27;99731.19;12181656;19;20082;-82
2022/08/03 04:27:48;;;;;;;3.58;1.85;;;;;;;19.29;57.24;99732.00;12228938;19;20131;-82
2022/08/03 04:32:11;;;;;;;3.30;1.80;;;;;;;19.27;56.65;99737.06;12190768;19;20034;-83
2022/08/03 04:36:16;;;;;;;2.67;1.92;;;;;;;19.25;56.58;99742.16;12210814;19;20597;-83
2022/08/03 04:40:25;;;;;;;2.88;1.95;;;;;;;19.24;56.97;99746.06;12204517;19;20113;-83
2022/08/03 04:44:36;;;;;;;4.20;2.60;;;;;;;19.27;57.81;99745.44;12187785;19;20011;-83
2022/08/03 04:48:38;;;;;;;2.42;1.75;;;;;;;19.31;57.90;99754.88;12207744;19;20358;-83
2022/08/03 04:52:45;;;;;;;3.80;2.40;;;;;;;19.33;58.67;99761.81;12192667;19;20003;-82
2022/08/03 04:56:46;;;;;;;4.18;2.00;;;;;;;19.37;58.71;99762.03;12210514;19;20011;-81
2022/08/03 05:00:50;;;;;;;3.13;1.77;;;;;;;19.40;58.85;99758.59;12213581;19;20303;-81
2022/08/03 05:04:51;;;;;;;4.80;2.00;;;;;;;19.46;58.47;99756.53;12177560;19;20488;-84
2022/08/03 05:08:56;;;;;;;3.88;2.10;;;;;;;19.51;58.66;99762.84;12217111;19;20003;-85
2022/08/03 05:12:58;;;;;;;4.20;2.20;;;;;;;19.58;58.92;99754.88;12216734;19;20625;-83
2022/08/03 05:16:59;;;;;;;4.68;2.35;;;;;;;19.66;58.80;99758.94;12193970;19;20007;-82
2022/08/03 05:21:01;;;;;;;6.88;2.35;;;;;;;19.74;59.03;99754.56;12216851;19;20014;-82
2022/08/03 05:25:04;;;;;;;4.70;2.10;;;;;;;19.79;58.79;99760.06;12228050;19;20006;-83
2022/08/03 05:29:06;;;;;;;3.40;2.35;;;;;;;19.84;58.92;99757.19;12191417;19;20095;-82
2022/08/03 05:33:08;;;;;;;3.97;2.55;;;;;;;19.92;58.61;99767.59;12230483;19;20487;-81
2022/08/03 05:37:10;;;;;;;4.90;2.75;;;;;;;19.99;58.52;99770.81;12229510;19;20070;-83
2022/08/03 05:41:14;;;;;;;3.22;1.92;;;;;;;20.07;58.12;99763.63;12208021;19;20031;-82
2022/08/03 05:45:24;;;;;;;4.70;2.05;;;;;;;20.16;57.84;99772.94;12225668;19;20010;-82
2022/08/03 05:49:29;;;;;;;4.72;1.95;;;;;;;20.23;57.78;99778.94;12226093;19;20082;-82
2022/08/03 05:53:33;;;;;;;4.00;2.08;;;;;;;20.33;58.17;99774.25;12207764;19;20014;-82
2022/08/03 05:57:36;;;;;;;8.57;2.65;;;;;;;20.40;58.02;99775.44;12226353;19;20504;-82
2022/08/03 06:01:38;;;;;;;5.28;2.15;;;;;;;20.49;57.57;99781.97;12230070;19;20029;-83
2022/08/03 06:05:39;;;;;;;6.18;2.30;;;;;;;20.62;57.29;99783.09;12205236;19;20007;-82
2022/08/03 06:10:01;;;;;;;4.57;1.75;;;;;;;20.74;57.08;99784.50;12224671;19;20003;-82
2022/08/03 06:14:23;;;;;;;5.13;2.40;;;;;;;20.90;56.91;99786.56;12202065;19;20002;-81
2022/08/03 06:18:25;;;;;;;3.83;2.47;;;;;;;21.09;56.83;99786.38;12219594;19;20082;-82
2022/08/03 06:22:26;;;;;;;4.55;2.47;;;;;;;21.32;56.35;99786.31;12224543;19;20002;-82
2022/08/03 06:26:28;;;;;;;4.32;2.35;;;;;;;21.56;55.47;99783.16;12200242;19;20023;-82
2022/08/03 06:30:30;;;;;;;5.47;2.45;;;;;;;21.78;55.26;99777.47;12223586;19;20399;-82
2022/08/03 06:34:32;;;;;;;4.97;2.38;;;;;;;22.00;54.31;99782.13;12261684;19;20092;-82
2022/08/03 06:38:36;;;;;;;5.55;2.47;;;;;;;22.22;53.83;99781.22;12209584;19;20079;-83
2022/08/03 06:42:37;;;;;;;6.60;2.80;;;;;;;22.48;53.06;99781.22;12221467;19;20006;-82
2022/08/03 06:46:40;;;;;;;4.97;2.20;;;;;;;22.74;52.17;99778.41;12218979;19;20015;-82
2022/08/03 06:50:43;;;;;;;6.78;2.60;;;;;;;23.02;51.37;99780.03;12192128;19;20018;-82
2022/08/03 06:54:44;;;;;;;7.53;2.60;;;;;;;23.34;49.97;99784.25;12222142;19;20014;-81
2022/08/03 06:58:46;;;;;;;4.00;2.40;;;;;;;23.60;49.65;99779.34;12186116;19;20019;-81
2022/08/03 07:02:49;;;;;;;4.25;2.63;;;;;;;23.92;48.69;99784.69;12217113;19;20489;-81
2022/08/03 07:06:57;;;;;;;4.30;2.42;;;;;;;24.24;48.13;99781.19;12211345;19;20486;-80
2022/08/03 07:10:59;;;;;;;4.75;2.90;;;;;;;24.56;47.50;99792.88;12189379;19;20015;-80
2022/08/03 07:15:01;;;;;;;3.17;2.33;;;;;;;24.86;46.54;99790.78;12210885;19;20038;-81
2022/08/03 07:19:03;;;;;;;3.72;2.40;;;;;;;25.18;45.27;99779.88;12206414;19;20135;-81
2022/08/03 07:23:05;;;;;;;6.27;2.57;;;;;;;25.50;44.66;99785.81;12183536;19;20011;-80
2022/08/03 07:27:08;;;;;;;5.73;2.83;;;;;;;25.83;43.99;99792.22;12214690;19;20483;-81
2022/08/03 07:31:10;;;;;;;7.90;2.88;;;;;;;26.20;42.92;99788.53;12206980;19;20031;-81
2022/08/03 07:35:11;;;;;;;8.37;2.63;;;;;;;26.52;42.25;99784.72;12179240;19;20010;-81
2022/08/03 07:39:25;;;;;;;3.30;2.38;;;;;;;26.87;41.42;99783.31;12200771;19;20046;-81
2022/08/03 07:43:27;;;;;;;6.00;2.50;;;;;;;27.13;40.97;99782.81;12207841;19;20019;-80
2022/08/03 07:47:30;;;;;;;4.83;2.70;;;;;;;27.31;40.26;99783.31;12181850;19;20019;-80
2022/08/03 07:51:36;;;;;;;5.32;2.95;;;;;;;27.51;39.74;99785.06;12201700;19;20862;-79
2022/08/03 07:55:38;;;;;;;6.22;2.83;;;;;;;27.68;39.49;99787.53;12211141;19;20720;-81
2022/08/03 07:59:39;;;;;;;10.53;2.67;;;;;;;27.90;38.91;99783.28;12189238;19;20010;-81
2022/08/03 08:04:01;;;;;;;4.20;2.83;;;;;;;28.28;38.19;99780.91;12203859;19;20018;-79
2022/08/03 08:08:03;;;;;;;5.33;2.90;;;;;;;28.46;37.97;99781.34;12180537;19;20408;-79
2022/08/03 08:12:08;;;;;;;5.15;2.88;;;;;;;28.67;37.27;99778.16;12203062;19;20007;-80
2022/08/03 08:16:16;;;;;;;6.18;2.60;;;;;;;28.90;37.46;99773.38;12200617;19;20418;-79
2022/08/03 08:20:24;;;;;;;7.57;3.17;;;;;;;29.10;36.67;99773.38;12176661;19;20018;-79
2022/08/03 08:24:32;;;;;;;6.80;3.50;;;;;;;29.18;36.46;99778.81;12200063;19;20355;-79
2022/08/03 08:28:36;;;;;;;6.50;2.97;;;;;;;29.44;36.50;99774.41;12201974;19;20007;-80
2022/08/03 08:32:38;;;;;;;6.15;3.40;;;;;;;29.69;35.75;99769.22;12166989;19;20007;-79
2022/08/03 08:36:39;;;;;;;9.10;3.53;;;;;;;29.92;36.25;99775.66;12198110;19;20026;-80
2022/08/03 08:40:41;;;;;;;13.75;4.55;;;;;;;30.13;35.08;99765.81;12191330;19;20011;-79
2022/08/03 08:44:43;;;;;;;8.32;3.42;;;;;;;30.24;34.67;99764.00;12215108;19;20014;-80
2022/08/03 08:48:47;;;;;;;4.47;2.78;;;;;;;30.29;34.42;99766.50;12218147;19;20127;-80
2022/08/03 08:52:52;;;;;;;7.90;3.20;;;;;;;30.45;33.93;99765.50;12205231;19;20010;-80
2022/08/03 08:56:56;;;;;;;6.18;2.88;;;;;;;30.58;33.64;99761.19;12210099;19;20507;-80
2022/08/03 09:00:58;;;;;;;5.32;3.17;;;;;;;30.78;33.87;99765.53;12226639;19;20021;-81
2022/08/03 09:05:00;;;;;;;7.82;2.80;;;;;;;31.01;33.34;99758.91;12211583;19;20046;-80
2022/08/03 09:09:07;;;;;;;4.32;2.85;;;;;;;31.23;33.06;99752.22;12231168;19;20021;-80
2022/08/03 09:13:32;;;;;;;4.72;2.83;;;;;;;31.51;32.71;99754.56;12226694;19;20007;-81
2022/08/03 09:17:40;;;;;;;6.57;2.90;;;;;;;31.58;32.07;99753.81;12195754;19;20093;-79
2022/08/03 09:21:42;;;;;;;9.25;3.17;;;;;;;31.52;31.78;99747.66;12226810;19;20025;-80
2022/08/03 09:25:44;;;;;;;7.47;2.75;;;;;;;31.61;31.38;99747.31;12210972;19;20010;-79
2022/08/03 09:29:48;;;;;;;5.32;3.17;;;;;;;31.76;31.67;99746.22;12222155;19;20488;-79
2022/08/03 09:33:53;;;;;;;3.55;2.58;;;;;;;32.09;30.88;99750.13;12209773;19;20011;-80
2022/08/03 09:38:09;;;;;;;8.00;2.90;;;;;;;32.14;30.56;99749.78;12197906;19;20014;-78
2022/08/03 09:42:17;;;;;;;6.25;2.65;;;;;;;32.19;30.80;99749.41;12227772;19;20645;-79
2022/08/03 09:46:24;;;;;;;4.63;2.90;;;;;;;32.34;30.71;99749.50;12221259;19;20090;-79
2022/08/03 09:50:26;;;;;;;8.15;3.13;;;;;;;32.44;29.68;99746.72;12202798;19;20021;-79
2022/08/03 09:54:30;;;;;;;6.03;2.88;;;;;;;32.42;30.14;99742.59;12212118;19;20031;-79
2022/08/03 09:58:32;;;;;;;7.05;2.42;;;;;;;32.77;29.82;99738.28;12202322;19;20412;-80
2022/08/03 10:02:33;;;;;;;4.00;3.00;;;;;;;32.89;29.27;99730.16;12187003;19;20015;-79
2022/08/03 10:06:35;;;;;;;7.85;3.47;;;;;;;32.98;29.71;99735.53;12207430;19;20040;-79
2022/08/03 10:10:42;;;;;;;4.25;2.85;;;;;;;33.46;28.98;99738.03;12207662;19;20034;-79
2022/08/03 10:14:45;;;;;;;7.65;3.15;;;;;;;33.56;27.90;99725.84;12219097;19;20437;-78
2022/08/03 10:18:47;;;;;;;3.45;3.03;;;;;;;33.37;28.29;99717.63;12219338;19;20015;-79
2022/08/03 10:22:49;;;;;;;4.00;2.60;;;;;;;33.64;28.44;99720.94;12188247;19;20464;-79
2022/08/03 10:26:55;;;;;;;2.90;2.40;;;;;;;34.16;27.91;99723.34;12216814;19;20050;-79
2022/08/03 10:30:57;;;;;;;4.05;3.40;;;;;;;34.40;27.49;99713.88;12216151;19;20011;-80
2022/08/03 10:35:16;;;;;;;3.13;2.83;;;;;;;34.54;26.61;99701.59;12180005;19;20031;-80
2022/08/03 10:39:21;;;;;;;;;;;;;;;34.76;26.90;99696.56;12208232;19;20003;-80
2022/08/03 10:43:35;;;;;;;3.70;3.30;;;;;;;34.69;26.56;99699.50;12204170;19;19944;-79
2022/08/03 10:47:37;;;;;;;5.18;3.20;;;;;;;34.73;26.90;99685.16;12187775;19;20014;-80
2022/08/03 10:51:39;;;;;;;4.50;3.20;;;;;;;34.73;26.60;99682.28;12205566;19;20018;-80
2022/08/03 11:00:07;;;;;;;6.90;2.92;;;;;;;34.58;26.70;99682.34;12180228;19;20078;-80
2022/08/03 11:04:19;;;;;;;5.57;3.58;;;;;;;34.97;26.17;99675.59;12209427;19;20082;-80
2022/08/03 11:08:26;;;;;;;7.03;3.30;;;;;;;34.92;26.08;99665.41;12190982;19;20021;-81
2022/08/03 11:12:31;;;;;;;7.78;3.45;;;;;;;35.20;26.17;99660.72;12202918;19;20011;-80
2022/08/03 11:16:38;;;;;;;7.78;3.58;;;;;;;35.55;25.51;99656.78;12206572;19;20039;-80
2022/08/03 11:20:51;;;;;;;4.05;3.10;;;;;;;35.70;25.37;99660.31;12182710;19;20022;-80
2022/08/03 11:24:53;;;;;;;4.50;3.42;;;;;;;35.69;25.09;99652.13;12214208;19;20018;-81
2022/08/03 11:29:28;;;;;;;7.18;2.90;;;;;;;35.74;24.86;99646.75;12182401;19;20085;-80
2022/08/03 11:33:30;;;;;;;4.30;3.30;;;;;;;35.81;25.08;99661.00;12200759;19;20011;-80
2022/08/03 11:37:32;;;;;;;4.50;3.28;;;;;;;35.97;24.97;99653.91;12198361;19;20149;-80
2022/08/03 11:41:34;;;;;;;4.53;3.30;;;;;;;36.19;24.26;99652.41;12178632;19;20018;-79
2022/08/03 11:46:02;;;;;;;4.13;3.27;;;;;;;36.50;24.24;99647.53;12204127;19;20463;-80
2022/08/03 11:50:05;;;;;;;3.08;2.78;;;;;;;36.95;23.93;99646.50;12175190;19;20247;-81
2022/08/03 11:54:07;;;;;;;5.18;3.20;;;;;;;37.38;23.02;99638.00;12199147;19;20006;-80
2022/08/03 11:58:21;;;;;;;5.38;3.22;;;;;;;38.12;22.92;99633.41;12190076;19;20031;-80
2022/08/03 12:02:56;;;;;;;5.95;3.58;;;;;;;38.65;21.96;99623.63;12174051;19;20057;-81
2022/08/03 12:06:59;;;;;;;8.45;3.33;;;;;;;39.19;21.58;99626.03;12198431;19;20006;-80
2022/08/03 12:11:05;;;;;;;4.60;2.88;;;;;;;39.59;21.38;99627.91;12172821;19;20485;-81
2022/08/03 12:15:08;;;;;;;5.90;3.15;;;;;;;39.98;21.10;99614.50;12197196;19;20007;-80
2022/08/03 12:19:09;;;;;;;3.55;2.83;;;;;;;40.41;20.18;99616.16;12191548;19;20023;-80
2022/08/03 12:23:12;;;;;;;4.90;2.72;;;;;;;40.80;19.72;99614.16;12177431;19;20023;-82
2022/08/03 12:27:24;;;;;;;5.65;2.88;;;;;;;40.87;19.55;99614.72;12203004;19;20011;-80
2022/08/03 12:31:26;;;;;;;4.00;3.00;;;;;;;40.92;19.33;99604.66;12202917;19;20010;-81
2022/08/03 12:35:28;;;;;;;4.43;3.40;;;;;;;40.91;19.01;99608.84;12179115;19;20018;-82
2022/08/03 12:39:30;;;;;;;3.70;3.05;;;;;;;40.87;18.86;99605.25;12187540;19;20015;-79
2022/08/03 12:43:32;;;;;;;5.63;2.90;;;;;;;41.03;19.14;99605.13;12204111;19;20359;-82
2022/08/03 12:47:53;;;;;;;4.78;2.83;;;;;;;41.70;18.32;99601.19;12184092;19;20007;-81
2022/08/03 12:51:58;;;;;;;5.30;2.80;;;;;;;42.44;17.78;99605.47;12181136;19;20408;-80
2022/08/03 12:56:09;;;;;;;4.18;3.10;;;;;;;43.04;17.64;99594.81;12179146;19;20010;-81
2022/08/03 13:00:13;;;;;;;5.88;3.05;;;;;;;43.05;17.52;99597.25;12200460;19;20392;-81
2022/08/03 13:04:32;;;;;;;6.38;2.88;;;;;;;42.89;17.31;99601.19;12204762;19;20011;-81
2022/08/03 13:08:34;;;;;;;3.20;2.53;;;;;;;42.61;17.30;99596.56;12175667;19;20014;-80
2022/08/03 13:12:48;;;;;;;3.38;2.63;;;;;;;42.83;17.10;99594.41;12192595;19;20053;-81
2022/08/03 13:16:50;;;;;;;4.22;2.70;;;;;;;43.63;17.03;99586.91;12178504;19;20366;-81
2022/08/03 13:20:52;;;;;;;6.88;2.70;;;;;;;43.99;16.30;99582.41;12194905;19;20018;-81
2022/08/03 13:25:00;;;;;;;3.00;2.28;;;;;;;44.07;16.51;99577.88;12193405;19;20529;-81
2022/08/03 13:29:01;;;;;;;4.82;2.50;;;;;;;44.26;16.39;99576.53;12178931;19;20010;-81
2022/08/03 13:33:04;;;;;;;4.38;2.88;;;;;;;44.53;15.90;99575.69;12193523;19;20015;-80
2022/08/03 13:37:06;;;;;;;5.07;2.40;;;;;;;44.79;16.25;99576.06;12209599;19;20015;-80
2022/08/03 13:41:10;;;;;;;5.47;2.70;;;;;;;45.31;15.36;99575.16;12191442;19;20037;-81
2022/08/03 13:45:16;;;;;;;6.38;2.80;;;;;;;45.91;14.70;99571.97;12207527;19;20002;-81
2022/08/03 13:49:18;;;;;;;3.08;2.40;;;;;;;45.90;15.08;99552.06;12215581;19;20136;-78
2022/08/03 13:53:20;;;;;;;4.65;2.42;;;;;;;46.38;15.02;99557.75;12192467;19;20010;-81
2022/08/03 13:57:22;;;;;;;4.28;2.50;;;;;;;46.39;14.05;99549.81;12207953;19;20038;-80
2022/08/03 14:01:43;;;;;;;5.97;2.50;;;;;;;45.78;14.74;99548.13;12204862;19;20002;-82
2022/08/03 14:05:55;;;;;;;5.22;2.20;;;;;;;46.12;14.83;99543.75;12238175;19;20006;-81
2022/08/03 14:09:57;;;;;;;4.20;3.03;;;;;;;46.28;14.46;99538.75;12221315;19;20117;-82
2022/08/03 14:14:00;;;;;;;3.08;2.38;;;;;;;46.29;14.21;99541.19;12201182;19;20015;-82
2022/08/03 14:18:02;;;;;;;3.05;2.50;;;;;;;46.62;14.28;99539.31;12217893;19;20027;-82
2022/08/03 14:22:04;;;;;;;3.65;2.30;;;;;;;46.90;14.02;99536.84;12214933;19;20405;-82
2022/08/03 14:26:07;;;;;;;2.75;2.45;;;;;;;46.84;14.01;99535.97;12196689;19;20011;-82
2022/08/03 14:30:10;;;;;;;2.60;2.40;;;;;;;45.98;14.07;99535.03;12215675;19;20023;-80
2022/08/03 14:34:12;;;;;;;4.32;2.63;;;;;;;44.26;15.23;99537.97;12213452;19;20011;-82
2022/08/03 14:38:14;;;;;;;2.58;2.38;;;;;;;42.63;16.27;99527.34;12188279;19;20010;-80
2022/08/03 14:42:16;;;;;;;7.03;2.35;;;;;;;41.61;16.88;99534.56;12201362;19;20011;-80
2022/08/03 14:46:19;;;;;;;2.95;2.58;;;;;;;40.18;18.20;99528.59;12208590;19;20011;-81
2022/08/03 14:50:21;;;;;;;6.90;3.33;;;;;;;39.06;19.30;99520.59;12183770;19;20011;-81
2022/08/03 14:54:41;;;;;;;4.13;2.67;;;;;;;40.25;18.57;99513.97;12208917;19;20504;-81
2022/08/03 14:58:43;;;;;;;5.03;2.90;;;;;;;40.18;18.53;99508.41;12205082;19;20078;-80
2022/08/03 15:02:44;;;;;;;3.22;2.92;;;;;;;39.00;19.52;99505.13;12211535;19;20011;-81
2022/08/03 15:06:46;;;;;;;4.10;2.58;;;;;;;38.16;19.94;99505.47;12208270;19;20070;-81
2022/08/03 15:10:53;;;;;;;4.88;2.90;;;;;;;37.89;20.28;99499.88;12181354;19;20519;-79
2022/08/03 15:14:56;;;;;;;4.78;2.78;;;;;;;37.65;21.04;99495.47;12201967;19;20090;-81
2022/08/03 15:18:59;;;;;;;7.28;3.08;;;;;;;37.40;21.10;99496.78;12206559;19;20036;-81
2022/08/03 15:23:01;;;;;;;5.22;3.03;;;;;;;37.02;21.37;99499.13;12182262;19;20496;-81
2022/08/03 15:27:03;;;;;;;3.03;2.55;;;;;;;36.59;21.85;99483.44;12207496;19;20023;-81
2022/08/03 15:31:11;;;;;;;4.30;2.90;;;;;;;36.32;22.62;99480.56;12203708;19;20014;-81
2022/08/03 15:35:22;;;;;;;7.30;3.07;;;;;;;36.12;22.58;99471.84;12177816;19;20754;-81
2022/08/03 15:39:24;;;;;;;6.35;3.15;;;;;;;35.78;22.91;99472.66;12207164;19;20098;-80
2022/08/03 15:43:25;;;;;;;5.68;2.65;;;;;;;36.00;22.54;99463.78;12205493;19;20031;-80
2022/08/03 15:47:27;;;;;;;4.45;3.05;;;;;;;36.24;22.47;99471.22;12182579;19;20395;-81
2022/08/03 15:51:29;;;;;;;6.47;2.85;;;;;;;37.07;21.80;99467.84;12199341;19;20014;-80
2022/08/03 15:55:31;;;;;;;4.43;2.95;;;;;;;37.33;21.77;99456.66;12204258;19;20024;-80
2022/08/03 15:59:33;;;;;;;4.78;3.40;;;;;;;37.32;21.89;99460.78;12181630;19;20017;-80
2022/08/03 16:03:35;;;;;;;4.35;2.85;;;;;;;36.99;22.61;99451.97;12205175;19;20082;-81
2022/08/03 16:07:45;;;;;;;5.28;3.20;;;;;;;36.68;22.43;99445.56;12198704;19;20010;-80
2022/08/03 16:12:04;;;;;;;3.88;3.03;;;;;;;36.30;22.73;99448.63;12176944;19;20480;-81
2022/08/03 16:16:18;;;;;;;3.08;2.78;;;;;;;36.01;23.25;99448.19;12197079;19;20019;-82
2022/08/03 16:20:20;;;;;;;3.15;2.85;;;;;;;35.91;23.48;99444.25;12173395;19;20620;-82
2022/08/03 16:24:34;;;;;;;8.07;3.03;;;;;;;35.74;23.24;99443.25;12198979;19;20006;-81
2022/08/03 16:28:39;;;;;;;5.55;2.75;;;;;;;35.59;23.68;99441.81;12208767;19;20011;-81
2022/08/03 16:32:43;;;;;;;4.10;2.63;;;;;;;35.37;23.83;99446.97;12183254;19;20570;-81
2022/08/03 16:36:46;;;;;;;4.53;2.97;;;;;;;35.13;24.44;99451.72;12201464;19;20007;-82
2022/08/03 16:40:51;;;;;;;5.18;2.92;;;;;;;34.97;24.10;99442.88;12200460;19;20017;-82
2022/08/03 16:44:52;;;;;;;6.50;2.58;;;;;;;34.87;24.55;99438.91;12213838;19;20025;-83
2022/08/03 16:48:54;;;;;;;;;;;;;;;34.77;24.52;99446.34;12199758;19;20011;-84
2022/08/03 16:52:55;;;;;;;4.03;3.00;;;;;;;34.59;24.64;99437.91;12201068;19;20293;-82
2022/08/03 16:56:57;;;;;;;;;;;;;;;34.52;24.76;99431.44;12179060;19;20030;-82
2022/08/03 17:00:59;;;;;;;3.17;2.53;;;;;;;34.47;24.86;99439.22;12193940;19;20304;-82
2022/08/03 17:05:11;;;;;;;6.18;2.67;;;;;;;34.44;24.71;99444.97;12206604;19;20015;-81
2022/08/03 17:09:17;;;;;;;7.70;2.97;;;;;;;34.39;24.96;99434.81;12188842;19;20011;-82
2022/08/03 17:13:21;;;;;;;3.15;2.58;;;;;;;34.32;25.07;99439.75;12207830;19;20006;-81
2022/08/03 17:17:29;;;;;;;7.35;2.53;;;;;;;34.15;25.26;99439.47;12209963;19;20014;-81
2022/08/03 17:21:55;;;;;;;4.70;2.75;;;;;;;34.12;25.48;99437.47;12185700;19;20006;-80
2022/08/03 17:25:59;;;;;;;3.30;2.38;;;;;;;34.33;25.12;99442.22;12214375;19;20115;-80
2022/08/03 17:30:08;;;;;;;4.15;2.70;;;;;;;34.37;25.20;99436.47;12193348;19;20014;-81
2022/08/03 17:34:09;;;;;;;3.80;2.75;;;;;;;34.25;25.14;99432.84;12205806;19;20018;-81
2022/08/03 17:38:12;;;;;;;3.78;2.60;;;;;;;34.13;25.60;99439.06;12209332;19;20388;-81
2022/08/03 17:42:18;;;;;;;8.63;2.65;;;;;;;34.07;25.58;99442.81;12186183;19;20043;-82
2022/08/03 17:46:33;;;;;;;4.95;2.60;;;;;;;33.96;25.51;99437.91;12201189;19;20049;-81
2022/08/03 17:50:49;;;;;;;5.10;2.25;;;;;;;33.87;26.19;99442.47;12219967;19;20010;-81
2022/08/03 17:54:57;;;;;;;2.72;2.22;;;;;;;33.77;25.92;99449.88;12186517;19;20014;-82
2022/08/03 17:59:41;;;;;;;3.67;2.40;;;;;;;33.72;26.19;99442.56;12211992;19;20006;-82
2022/08/03 18:03:58;;;;;;;7.97;2.30;;;;;;;33.73;26.42;99446.22;12189141;19;20022;-82
2022/08/03 18:08:01;;;;;;;7.47;2.83;;;;;;;33.62;26.27;99446.28;12213878;19;20524;-83
2022/08/03 18:12:13;;;;;;;3.88;2.33;;;;;;;33.45;26.70;99450.81;12191932;19;20006;-81
2022/08/03 18:16:23;;;;;;;5.82;2.70;;;;;;;33.29;27.35;99451.28;12208721;19;20088;-83
2022/08/03 18:20:26;;;;;;;5.43;2.97;;;;;;;33.07;27.40;99449.69;12214941;19;20367;-82
2022/08/03 18:24:40;;;;;;;6.40;3.13;;;;;;;32.83;27.90;99452.16;12192167;19;20010;-83
2022/08/03 18:28:43;;;;;;;6.32;3.35;;;;;;;32.66;28.14;99450.13;12209971;19;20010;-82
2022/08/03 18:32:45;;;;;;;3.67;2.28;;;;;;;32.45;28.34;99457.47;12208551;19;20361;-82
2022/08/03 18:37:07;;;;;;;3.40;2.30;;;;;;;32.16;29.09;99459.47;12197063;19;20007;-82
2022/08/03 18:41:09;;;;;;;;;;;;;;;31.91;29.03;99450.03;12212768;19;20013;-82
2022/08/03 18:45:20;;;;;;;4.50;2.33;;;;;;;31.67;29.49;99449.50;12185342;19;19922;-83
2022/08/03 18:50:19;;;;;;;4.38;2.55;;;;;;;31.38;30.22;99447.75;12217409;19;20014;-82
2022/08/03 18:55:00;;;;;;;4.32;2.40;;;;;;;31.06;30.61;99454.91;12192191;19;20011;-82
2022/08/03 18:59:27;;;;;;;3.95;2.28;;;;;;;30.76;31.03;99454.25;12212243;19;20002;-82
2022/08/03 19:03:34;;;;;;;3.90;2.30;;;;;;;30.50;31.65;99455.25;12190061;19;20007;-82
2022/08/03 19:08:02;;;;;;;5.90;2.42;;;;;;;30.26;31.61;99460.34;12213035;19;20007;-81
2022/08/03 19:12:32;;;;;;;4.88;2.47;;;;;;;30.03;32.08;99465.34;12185400;19;20027;-82
2022/08/03 19:16:46;;;;;;;3.08;2.25;;;;;;;29.81;32.48;99467.94;12205257;19;20369;-82
2022/08/03 19:20:51;;;;;;;4.28;2.00;;;;;;;29.62;32.71;99456.75;12205919;19;20073;-82